Flight Track Log - Related Links

Times and Time Zones

All times are in EDT time to prevent confusion due to time zone crossing. See the UAL1583 flight status page for this flight to view local times or setup timezone preferences in your user account.

Time Position Orientation Groundspeed Altitude Reporting Facility
EDT Latitude Longitude Course Direction KTS MPH feet Rate Location/Type
Mon 09:39:55 AM 37.6667 -122.3500 90° East 181 208 1,900  Level Northern Cal TRACON
Mon 09:40:55 AM 37.7167 -122.3333 15° North 246 283 4,000 2,450 Climbing Northern Cal TRACON
Mon 09:41:00 AM 37.7101 -122.0612 80° East  Level Estimated
Mon 09:41:55 AM 37.7833 -122.3667 338° Northwest 275 316 6,800  Level Northern Cal TRACON
Mon 09:42:00 AM 37.7553 -121.9039 84° East  Level Estimated
Mon 09:42:49 AM 37.8500 -122.3833 349° North 273 314 9,400  Level Northern Cal TRACON
Mon 09:43:00 AM 37.8003 -121.7464 76° East  Level Estimated
Mon 09:44:00 AM 37.8450 -121.5887 90° East  Level Estimated
Mon 09:44:14 AM 37.9050 -122.2875 54° Northeast 322 371 11,600  Level Oakland Center
Mon 09:45:00 AM 37.8896 -121.4308 90° East  Level Estimated
Mon 09:45:15 AM 37.9219 -122.1575 81° East 371 427 12,700  Level Oakland Center
Mon 09:46:16 AM 37.9425 -122.0117 80° East 412 474 14,300 1,770 Climbing Oakland Center
Mon 09:47:17 AM 37.9658 -121.8311 81° East 432 497 16,300 1,820 Climbing Oakland Center
Mon 09:48:18 AM 37.9861 -121.6761 81° East 446 513 18,000 1,672 Climbing Oakland Center
Mon 09:49:19 AM 38.0075 -121.5153 80° East 459 528 19,700 1,574 Climbing Oakland Center
Mon 09:50:20 AM 38.0264 -121.3728 80° East 472 543 21,200 1,438 Climbing Oakland Center
Mon 09:51:20 AM 38.0531 -121.1689 81° East 491 565 22,600 1,289 Climbing Oakland Center
Mon 09:52:21 AM 38.0761 -120.9944 80° East 503 579 23,800 1,230 Climbing Oakland Center
Mon 09:53:22 AM 38.1172 -120.8228 73° East 513 590 25,100 1,131 Climbing Oakland Center
Mon 09:54:23 AM 38.1583 -120.6492 73° East 518 596 26,100 1,180 Climbing Oakland Center
Mon 09:55:24 AM 38.2006 -120.4711 73° East 527 606 27,500 1,328 Climbing Oakland Center
Mon 09:56:25 AM 38.2422 -120.2947 73° East 524 603 28,800 1,240 Climbing Oakland Center
Mon 09:57:25 AM 38.2853 -120.1158 73° East 528 608 30,000 1,240 Climbing Oakland Center
Mon 09:58:26 AM 38.3281 -119.9392 73° East 527 606 31,300 1,279 Climbing Oakland Center
Mon 09:59:27 AM 38.3683 -119.7625 74° East 523 602 32,600 1,230 Climbing Oakland Center
Mon 10:00:28 AM 38.4131 -119.5667 74° East 520 598 33,800 934 Climbing Oakland Center
Mon 10:01:29 AM 38.4522 -119.3911 74° East 518 596 34,500 689 Climbing Oakland Center
Mon 10:02:30 AM 38.4922 -119.2122 74° East 526 605 35,200 787 Climbing Oakland Center
Mon 10:03:31 AM 38.5172 -119.0286 80° East 528 608 36,100 843 Climbing Oakland Center
Mon 10:04:31 AM 38.5350 -118.8425 83° East 530 610 36,900 446 Climbing Oakland Center
Mon 10:05:32 AM 38.5536 -118.6597 83° East 525 604 37,000 49 Climbing Oakland Center
Mon 10:06:33 AM 38.5725 -118.4733 83° East 530 610 37,000  Level Oakland Center
Mon 10:07:34 AM 38.5900 -118.2892 83° East 528 608 37,000  Level Oakland Center
Mon 10:08:35 AM 38.6094 -118.0828 83° East 530 610 37,000  Level Oakland Center
Mon 10:09:36 AM 38.6261 -117.8939 83° East 533 613 37,000  Level Oakland Center
Mon 10:10:37 AM 38.6436 -117.7058 83° East 531 611 37,000  Level Oakland Center
Mon 10:11:38 AM 38.6603 -117.5167 84° East 531 611 37,000  Level Oakland Center
Mon 10:12:39 AM 38.6758 -117.3275 84° East 532 612 37,000  Level Oakland Center
Mon 10:13:40 AM 38.7019 -117.1411 80° East 529 609 37,000  Level Oakland Center
Mon 10:14:41 AM 38.7306 -116.9553 79° East 528 608 37,000  Level Oakland Center
Mon 10:15:42 AM 38.7575 -116.7694 79° East 528 608 37,000  Level Oakland Center
Mon 10:16:43 AM 38.7842 -116.5847 79° East 526 605 37,000  Level Oakland Center
Mon 10:17:44 AM 38.8108 -116.3983 80° East 530 610 37,000  Level Oakland Center
Mon 10:18:45 AM 38.8361 -116.2119 80° East 530 610 37,000  Level Oakland Center
Mon 10:20:13 AM 38.8781 -115.9172 80° East 526 605 37,000  Level Salt Lake Center
Mon 10:21:15 AM 38.9039 -115.7319 80° East 527 606 37,000  Level Salt Lake Center
Mon 10:22:16 AM 38.9303 -115.5453 80° East 531 611 37,000  Level Salt Lake Center
Mon 10:23:18 AM 38.9575 -115.3486 80° East 528 608 37,000  Level Salt Lake Center
Mon 10:24:19 AM 38.9828 -115.1614 80° East 532 612 37,000  Level Salt Lake Center
Mon 10:25:20 AM 39.0072 -114.9747 80° East 531 611 37,000  Level Salt Lake Center
Mon 10:26:22 AM 39.0319 -114.7878 80° East 531 611 37,000  Level Salt Lake Center
Mon 10:27:24 AM 39.0550 -114.6019 81° East 529 609 37,000  Level Salt Lake Center
Mon 10:28:25 AM 39.0786 -114.4164 81° East 527 606 37,000  Level Salt Lake Center
Mon 10:29:27 AM 39.1017 -114.2294 81° East 529 609 37,000  Level Salt Lake Center
Mon 10:30:28 AM 39.1297 -114.0050 81° East 529 609 37,000  Level Salt Lake Center
Mon 10:31:30 AM 39.1522 -113.8200 81° East 525 604 37,000  Level Salt Lake Center
Mon 10:32:32 AM 39.1742 -113.6364 81° East 520 598 37,000  Level Salt Lake Center
Mon 10:33:33 AM 39.1967 -113.4522 81° East 520 598 37,000  Level Salt Lake Center
Mon 10:34:35 AM 39.2172 -113.2678 82° East 520 598 37,000  Level Salt Lake Center
Mon 10:35:37 AM 39.2383 -113.0847 81° East 518 596 37,000  Level Salt Lake Center
Mon 10:36:38 AM 39.2589 -112.9025 82° East 514 592 37,000  Level Salt Lake Center
Mon 10:37:40 AM 39.2792 -112.7189 82° East 516 594 37,000  Level Salt Lake Center
Mon 10:38:42 AM 39.3036 -112.5086 81° East 515 593 37,000  Level Salt Lake Center
Mon 10:39:44 AM 39.3539 -112.3425 69° East 505 581 37,000  Level Salt Lake Center
Mon 10:40:46 AM 39.4053 -112.1775 68° East 499 574 37,000  Level Salt Lake Center
Mon 10:41:47 AM 39.4569 -112.0092 68° East 504 580 37,000  Level Salt Lake Center
Mon 10:42:49 AM 39.5189 -111.8078 68° East 503 579 37,000  Level Salt Lake Center
Mon 10:43:51 AM 39.5692 -111.6394 69° East 505 581 37,000  Level Salt Lake Center
Mon 10:44:53 AM 39.6200 -111.4725 68° East 502 578 37,000  Level Salt Lake Center
Mon 10:45:55 AM 39.6519 -111.2939 77° East 512 589 37,000  Level Salt Lake Center
Mon 10:46:57 AM 39.6794 -111.1003 79° East 511 588 37,000  Level Salt Lake Center
Mon 10:47:59 AM 39.7033 -110.9264 80° East 513 590 37,000  Level Salt Lake Center
Mon 10:49:00 AM 39.7308 -110.7219 80° East 514 592 37,000  Level Salt Lake Center
Mon 10:50:02 AM 39.7542 -110.5481 80° East 512 589 37,000  Level Salt Lake Center
Mon 10:51:04 AM 39.7814 -110.3458 80° East 510 587 37,000  Level Salt Lake Center
Mon 10:52:06 AM 39.8022 -110.1733 81° East 506 582 37,000  Level Salt Lake Center
Mon 10:53:08 AM 39.8278 -109.9703 81° East 509 586 37,000  Level Salt Lake Center
Mon 10:54:10 AM 39.8506 -109.7969 80° East 509 586 37,000  Level Salt Lake Center
Mon 10:55:12 AM 39.8714 -109.6214 81° East 512 589 37,000  Level Salt Lake Center
Mon 10:56:14 AM 39.8961 -109.4169 81° East 512 589 37,000  Level Salt Lake Center
Mon 10:57:16 AM 39.9172 -109.2417 81° East 509 586 37,000  Level Salt Lake Center
Mon 10:58:03 AM 39.9353 -109.0933 81° East 511 588 37,000  Level Denver Center
Mon 10:59:05 AM 39.9603 -108.8836 81° East 519 597 37,000  Level Denver Center
Mon 11:00:08 AM 39.9800 -108.7061 82° East 514 592 37,000  Level Denver Center
Mon 11:01:10 AM 40.0036 -108.4981 82° East 515 593 37,000  Level Denver Center
Mon 11:02:12 AM 40.0231 -108.3219 82° East 510 587 37,000  Level Denver Center
Mon 11:03:14 AM 40.0431 -108.1517 81° East 500 575 37,000  Level Denver Center
Mon 11:04:16 AM 40.0644 -107.9525 82° East 495 570 37,000  Level Denver Center
Mon 11:05:18 AM 40.0847 -107.7828 81° East 494 568 37,000  Level Denver Center
Mon 11:06:20 AM 40.1161 -107.5842 78° East 499 574 37,000  Level Denver Center
Mon 11:07:22 AM 40.1461 -107.4142 77° East 502 578 37,000  Level Denver Center
Mon 11:08:24 AM 40.1794 -107.2217 77° East 489 563 37,000  Level Denver Center
Mon 11:09:26 AM 40.2094 -107.0586 76° East 482 555 37,000  Level Denver Center
Mon 11:10:28 AM 40.2414 -106.8667 78° East 484 557 37,000  Level Denver Center
Mon 11:11:30 AM 40.2694 -106.7175 76° East 484 557 37,000  Level Denver Center
Mon 11:12:32 AM 40.3047 -106.5089 77° East 488 562 37,000  Level Denver Center
Mon 11:13:34 AM 40.3319 -106.3406 78° East 492 566 37,000  Level Denver Center
Mon 11:14:36 AM 40.3639 -106.1531 77° East 497 572 37,000  Level Denver Center
Mon 11:15:39 AM 40.3922 -105.9858 77° East 496 571 37,000  Level Denver Center
Mon 11:16:41 AM 40.4208 -105.8078 78° East 499 574 37,000  Level Denver Center
Mon 11:17:43 AM 40.4528 -105.5964 79° East 494 568 37,000  Level Denver Center
Mon 11:18:45 AM 40.4800 -105.4208 78° East 493 567 37,000  Level Denver Center
Mon 11:19:47 AM 40.5094 -105.2489 77° East 482 555 37,000  Level Denver Center
Mon 11:20:49 AM 40.5361 -105.0753 79° East 483 556 37,000  Level Denver Center
Mon 11:21:51 AM 40.5625 -104.9014 79° East 483 556 37,000  Level Denver Center
Mon 11:22:53 AM 40.5900 -104.7247 78° East 490 564 37,000  Level Denver Center
Mon 11:23:55 AM 40.6169 -104.5503 78° East 488 562 37,000  Level Denver Center
Mon 11:24:57 AM 40.6467 -104.3383 79° East 489 563 37,000  Level Denver Center
Mon 11:25:59 AM 40.6731 -104.1661 79° East 482 555 37,000  Level Denver Center
Mon 11:27:01 AM 40.6989 -103.9958 79° East 470 541 37,000  Level Denver Center
Mon 11:28:03 AM 40.7242 -103.8200 79° East 485 558 37,000  Level Denver Center
Mon 11:29:05 AM 40.7497 -103.6414 79° East 494 568 37,000  Level Denver Center
Mon 11:30:07 AM 40.7747 -103.4625 79° East 496 571 37,000  Level Denver Center
Mon 11:31:09 AM 40.8044 -103.2483 80° East 495 570 37,000  Level Denver Center
Mon 11:32:12 AM 40.8306 -103.0714 79° East 493 567 37,000  Level Denver Center
Mon 11:33:14 AM 40.8558 -102.8836 80° East 492 566 37,000  Level Denver Center
Mon 11:34:16 AM 40.8781 -102.7150 80° East 489 563 37,000  Level Denver Center
Mon 11:35:18 AM 40.9028 -102.5181 81° East 487 560 37,000  Level Denver Center
Mon 11:36:20 AM 40.9253 -102.3497 80° East 486 559 37,000  Level Denver Center
Mon 11:37:22 AM 40.9469 -102.1808 80° East 486 559 37,000  Level Denver Center
Mon 11:38:24 AM 40.9725 -101.9847 80° East 485 558 37,000  Level Denver Center
Mon 11:39:26 AM 40.9933 -101.8147 81° East 489 563 37,000  Level Denver Center
Mon 11:40:28 AM 41.0192 -101.6172 80° East 487 560 37,000  Level Denver Center
Mon 11:41:30 AM 41.0403 -101.4492 80° East 484 557 37,000  Level Denver Center
Mon 11:42:32 AM 41.0644 -101.2508 81° East 487 560 37,000  Level Denver Center
Mon 11:43:34 AM 41.0847 -101.0833 81° East 482 555 37,000  Level Denver Center
Mon 11:44:36 AM 41.1089 -100.8844 81° East 486 559 37,000  Level Denver Center
Mon 11:45:38 AM 41.1294 -100.7108 81° East 491 565 37,000  Level Denver Center
Mon 11:46:41 AM 41.1492 -100.5367 81° East 494 568 37,000  Level Denver Center
Mon 11:47:43 AM 41.1722 -100.3322 81° East 498 573 37,000  Level Denver Center
Mon 11:48:45 AM 41.1914 -100.1569 82° East 499 574 37,000  Level Denver Center
Mon 11:49:47 AM 41.2136 -99.9533 82° East 499 574 37,000  Level Denver Center
Mon 11:50:49 AM 41.2336 -99.7800 81° East 496 571 37,000  Level Denver Center
Mon 11:51:51 AM 41.2544 -99.5778 82° East 495 570 37,000  Level Denver Center
Mon 11:52:53 AM 41.2711 -99.4128 82° East 497 572 37,000  Level Denver Center
Mon 11:53:55 AM 41.2906 -99.2319 82° East 494 568 37,000  Level Denver Center
Mon 11:55:05 AM 41.3111 -99.0225 82° East 495 570 37,000  Level Minneapolis Center
Mon 11:56:07 AM 41.3283 -98.8044 84° East 495 570 37,000  Level Minneapolis Center
Mon 11:57:09 AM 41.3494 -98.6239 81° East 494 568 37,000  Level Minneapolis Center
Mon 11:58:11 AM 41.3661 -98.4567 82° East 497 572 37,000  Level Minneapolis Center
Mon 11:59:13 AM 41.3811 -98.2367 85° East 497 572 37,000  Level Minneapolis Center
Mon 12:00:15 PM 41.3853 -98.0758 88° East 495 570 37,000  Level Minneapolis Center
Mon 12:01:17 PM 41.3903 -97.8933 88° East 495 570 37,000  Level Minneapolis Center
Mon 12:02:20 PM 41.3964 -97.6725 88° East 496 571 37,000  Level Minneapolis Center
Mon 12:03:22 PM 41.4019 -97.4878 88° East 499 574 37,000  Level Minneapolis Center
Mon 12:04:24 PM 41.4058 -97.3014 88° East 503 579 37,000  Level Minneapolis Center
Mon 12:05:26 PM 41.4114 -97.1147 88° East 504 580 37,000  Level Minneapolis Center
Mon 12:06:28 PM 41.4153 -96.9272 88° East 507 583 37,000  Level Minneapolis Center
Mon 12:07:30 PM 41.4192 -96.7392 88° East 508 585 37,000  Level Minneapolis Center
Mon 12:08:32 PM 41.4228 -96.5122 89° East 511 588 37,000  Level Minneapolis Center
Mon 12:09:34 PM 41.4261 -96.3356 89° East 511 588 37,000  Level Minneapolis Center
Mon 12:10:36 PM 41.4272 -96.1442 89° East 517 595 37,000  Level Minneapolis Center
Mon 12:11:38 PM 41.4306 -95.9553 89° East 512 589 37,000  Level Minneapolis Center
Mon 12:12:40 PM 41.4339 -95.7281 89° East 511 588 37,000  Level Minneapolis Center
Mon 12:13:42 PM 41.4356 -95.5478 89° East 511 588 37,000  Level Minneapolis Center
Mon 12:14:44 PM 41.4361 -95.3586 90° East 510 587 37,000  Level Minneapolis Center
Mon 12:15:46 PM 41.4383 -95.1697 89° East 510 587 37,000  Level Minneapolis Center
Mon 12:16:48 PM 41.4392 -94.9794 90° East 513 590 37,000  Level Minneapolis Center
Mon 12:17:51 PM 41.4397 -94.7517 90° East 514 592 37,000  Level Minneapolis Center
Mon 12:18:53 PM 41.4403 -94.5600 90° East 517 595 37,000  Level Minneapolis Center
Mon 12:19:55 PM 41.4403 -94.3686 90° East 517 595 37,000  Level Minneapolis Center
Mon 12:20:57 PM 41.4381 -94.1617 91° East 518 596 37,000  Level Minneapolis Center
Mon 12:21:59 PM 41.4378 -93.9714 90° East 517 595 37,000  Level Minneapolis Center
Mon 12:23:01 PM 41.4372 -93.7803 90° East 518 596 37,000  Level Minneapolis Center
Mon 12:24:03 PM 41.4411 -93.5900 88° East 517 595 37,000  Level Minneapolis Center
Mon 12:25:05 PM 41.4622 -93.3992 82° East 521 600 37,000  Level Minneapolis Center
Mon 12:26:07 PM 41.4789 -93.2111 83° East 517 595 37,000  Level Minneapolis Center
Mon 12:27:09 PM 41.5006 -92.9864 83° East 513 590 37,000 242 Level Minneapolis Center
Mon 12:28:11 PM 41.5178 -92.8000 83° East 510 587 37,500 435 Climbing Minneapolis Center
Mon 12:29:13 PM 41.5350 -92.6128 83° East 510 587 37,900 433 Climbing Minneapolis Center
Mon 12:29:48 PM 41.5447 -92.4950 84° East 517 595 38,200 495 Climbing Chicago Center
Mon 12:30:50 PM 41.5625 -92.3036 83° East 524 603 38,700 387 Climbing Chicago Center
Mon 12:31:52 PM 41.5778 -92.1119 84° East 525 604 39,000 145 Climbing Chicago Center
Mon 12:32:54 PM 41.5964 -91.8833 84° East 524 603 39,000  Level Chicago Center
Mon 12:33:56 PM 41.6125 -91.6919 84° East 524 603 39,000  Level Chicago Center
Mon 12:34:58 PM 41.6272 -91.5042 84° East 518 596 39,000  Level Chicago Center
Mon 12:36:00 PM 41.6425 -91.3189 84° East 513 590 39,000  Level Chicago Center
Mon 12:37:02 PM 41.6561 -91.1306 84° East 514 592 39,000  Level Chicago Center
Mon 12:38:04 PM 41.6733 -90.9039 84° East 517 595 39,000  Level Chicago Center
Mon 12:39:06 PM 41.6875 -90.7136 84° East 518 596 39,000  Level Chicago Center
Mon 12:40:08 PM 41.7028 -90.5092 84° East 514 592 39,000  Level Chicago Center
Mon 12:41:10 PM 41.6653 -90.3272 105° East 514 592 39,000  Level Chicago Center
Mon 12:42:12 PM 41.5664 -90.2042 137° Southeast 490 564 39,000  Level Chicago Center
Mon 12:43:14 PM 41.4561 -90.0975 144° Southeast 490 564 39,000  Level Chicago Center
Mon 12:44:16 PM 41.3881 -89.9347 119° Southeast 521 600 39,000  Level Chicago Center
Mon 12:45:18 PM 41.4014 -89.7478 85° East 525 604 39,000  Level Chicago Center
Mon 12:46:20 PM 41.4764 -89.5925 57° Northeast 506 582 39,000  Level Chicago Center
Mon 12:47:22 PM 41.5589 -89.4306 56° Northeast 500 575 39,000  Level Chicago Center
Mon 12:48:24 PM 41.6517 -89.2461 56° Northeast 499 574 39,000  Level Chicago Center
Mon 12:49:26 PM 41.6786 -89.0608 79° East 508 585 39,000  Level Chicago Center
Mon 12:50:28 PM 41.6950 -88.8733 83° East 512 589 39,000  Level Chicago Center
Mon 12:51:31 PM 41.7114 -88.6836 83° East 514 592 39,000  Level Chicago Center
Mon 12:52:33 PM 41.7269 -88.4947 84° East 511 588 39,000  Level Chicago Center
Mon 12:53:35 PM 41.7428 -88.3056 84° East 512 589 39,000  Level Chicago Center
Mon 12:54:37 PM 41.7622 -88.0758 83° East 515 593 39,000  Level Chicago Center
Mon 12:55:39 PM 41.7758 -87.8839 85° East 514 592 39,000  Level Chicago Center
Mon 12:56:41 PM 41.7911 -87.6942 84° East 511 588 39,000  Level Chicago Center
Mon 12:57:43 PM 41.8050 -87.5047 84° East 510 587 39,000  Level Chicago Center
Mon 12:58:45 PM 41.8181 -87.3156 85° East 511 588 39,000  Level Chicago Center
Mon 12:59:47 PM 41.8586 -87.1392 73° East 504 580 39,000  Level Chicago Center
Mon 01:00:49 PM 41.9594 -87.0225 41° Northeast 487 560 39,000  Level Chicago Center
Mon 01:01:51 PM 42.0911 -86.9081 33° Northeast 473 544 39,000  Level Chicago Center
Mon 01:02:54 PM 42.2003 -86.8131 33° Northeast 471 542 39,000  Level Chicago Center
Mon 01:03:56 PM 42.2303 -86.6283 78° East 495 570 39,000  Level Chicago Center
Mon 01:04:58 PM 42.2144 -86.4428 97° East 497 572 39,000  Level Chicago Center
Mon 01:06:00 PM 42.1994 -86.2589 96° East 496 571 39,000  Level Chicago Center
Mon 01:07:02 PM 42.1836 -86.0739 97° East 495 570 39,000  Level Chicago Center
Mon 01:08:04 PM 42.1664 -85.8672 96° East 497 572 39,000  Level Chicago Center
Mon 01:09:06 PM 42.1506 -85.6825 97° East 498 573 39,000  Level Chicago Center
Mon 01:10:08 PM 42.1344 -85.5003 97° East 496 571 39,000  Level Chicago Center
Mon 01:11:10 PM 42.1175 -85.3150 97° East 506 582 39,000  Level Chicago Center
Mon 01:12:12 PM 42.0978 -85.0900 97° East 509 586 39,000  Level Chicago Center
Mon 01:13:14 PM 42.0789 -84.9042 98° East 505 581 39,000  Level Chicago Center
Mon 01:14:16 PM 42.0619 -84.7197 97° East 500 575 39,000  Level Chicago Center
Mon 01:15:18 PM 42.0431 -84.5344 98° East 503 579 39,000  Level Chicago Center
Mon 01:16:20 PM 42.0253 -84.3486 97° East 504 580 39,000  Level Chicago Center
Mon 01:17:22 PM 42.0064 -84.1633 98° East 503 579 39,000  Level Chicago Center
Mon 01:18:24 PM 41.9822 -83.9417 98° East 502 578 39,000  Level Chicago Center
Mon 01:19:38 PM 41.9558 -83.7069 99° East 507 583 39,000  Level Cleveland Center
Mon 01:20:40 PM 41.9369 -83.5364 98° East 512 589 39,000  Level Cleveland Center
Mon 01:21:42 PM 41.9328 -83.3439 92° East 511 588 39,000  Level Cleveland Center
Mon 01:22:44 PM 41.9314 -83.1444 90° East 512 589 39,000  Level Cleveland Center
Mon 01:23:46 PM 41.9303 -82.9542 90° East 515 593 39,000  Level Cleveland Center
Mon 01:24:48 PM 41.9289 -82.7247 90° East 515 593 39,000  Level Cleveland Center
Mon 01:25:50 PM 41.9272 -82.5356 91° East 512 589 39,000  Level Cleveland Center
Mon 01:26:53 PM 41.9256 -82.3453 91° East 511 588 39,000  Level Cleveland Center
Mon 01:27:55 PM 41.9222 -82.1550 91° East 513 590 39,000  Level Cleveland Center
Mon 01:28:57 PM 41.9189 -81.9589 91° East 510 587 39,000  Level Cleveland Center
Mon 01:29:59 PM 41.9131 -81.7664 92° East 510 587 39,000  Level Cleveland Center
Mon 01:31:01 PM 41.8908 -81.5422 98° East 512 589 39,000  Level Cleveland Center
Mon 01:32:03 PM 41.8728 -81.3478 97° East 516 594 39,000  Level Cleveland Center
Mon 01:33:05 PM 41.8556 -81.1558 97° East 512 589 39,000  Level Cleveland Center
Mon 01:34:07 PM 41.8381 -80.9689 97° East 501 577 39,000  Level Cleveland Center
Mon 01:35:09 PM 41.8219 -80.7789 96° East 506 582 39,000  Level Cleveland Center
Mon 01:36:11 PM 41.8019 -80.5889 98° East 507 583 39,000  Level Cleveland Center
Mon 01:37:13 PM 41.7839 -80.4014 97° East 503 579 39,000  Level Cleveland Center
Mon 01:38:16 PM 41.7633 -80.2133 98° East 505 581 39,000  Level Cleveland Center
Mon 01:39:18 PM 41.7450 -80.0258 97° East 504 580 39,000  Level Cleveland Center
Mon 01:40:20 PM 41.7219 -79.8081 98° East 504 580 39,000  Level Cleveland Center
Mon 01:41:22 PM 41.7017 -79.6181 98° East 508 585 39,000  Level Cleveland Center
Mon 01:42:24 PM 41.6808 -79.4203 98° East 504 580 39,000  Level Cleveland Center
Mon 01:43:26 PM 41.6631 -79.2592 98° East 507 583 39,000  Level Cleveland Center
Mon 01:44:28 PM 41.6394 -79.0486 98° East 505 581 39,000  Level Cleveland Center
Mon 01:45:30 PM 41.6189 -78.8644 98° East 504 580 39,000 -677 Level Cleveland Center
Mon 01:46:32 PM 41.5969 -78.6775 99° East 507 583 37,600 -1,597 Descending Cleveland Center
Mon 01:47:34 PM 41.5756 -78.4922 99° East 505 581 35,700 -2,032 Descending Cleveland Center
Mon 01:48:36 PM 41.5483 -78.2711 99° East 503 579 33,400 -2,016 Descending Cleveland Center
Mon 01:49:39 PM 41.5267 -78.0886 99° East 499 574 31,500 -1,152 Descending Cleveland Center
Mon 01:50:41 PM 41.5044 -77.9061 99° East 499 574 31,000 -242 Descending Cleveland Center
Mon 01:51:43 PM 41.4789 -77.7250 101° East 499 574 31,000  Level Cleveland Center
Mon 01:52:45 PM 41.4525 -77.5444 101° East 499 574 31,000 -242 Level Cleveland Center
Mon 01:53:47 PM 41.4261 -77.3644 101° East 498 573 30,500 -823 Descending Cleveland Center
Mon 01:54:49 PM 41.3944 -77.1497 101° East 497 572 29,300 -1,016 Descending Cleveland Center
Mon 01:55:51 PM 41.3681 -76.9719 101° East 494 568 28,400 -919 Descending Cleveland Center
Mon 01:56:53 PM 41.3431 -76.7939 101° East 493 567 27,400 -1,016 Descending Cleveland Center
Mon 01:57:55 PM 41.2961 -76.6167 109° East 508 585 26,300 -1,694 Descending Cleveland Center
Mon 01:58:57 PM 41.2517 -76.4489 109° East 495 570 23,900 -2,516 Descending Cleveland Center
Mon 01:59:59 PM 41.2014 -76.2592 109° East 465 535 21,100 -2,516 Descending Cleveland Center
Mon 02:01:01 PM 41.1558 -76.1033 111° Southeast 457 526 18,700 -1,525 Descending New York Center
Mon 02:02:01 PM 41.1203 -75.9656 109° East 445 512 18,000 -1,150 Descending New York Center
Mon 02:03:01 PM 41.0753 -75.8053 110° East 439 505 16,400 -1,900 Descending New York Center
Mon 02:04:01 PM 41.0375 -75.6622 109° East 415 478 14,200 -1,686 Descending New York Center
Mon 02:05:02 PM 40.9992 -75.5300 111° Southeast 397 457 13,000 -694 Descending New York Center
Mon 02:06:02 PM 40.9683 -75.4153 110° East 346 398 12,800 -694 Descending New York Center
Mon 02:07:03 PM 40.9369 -75.3061 111° Southeast 327 376 11,600 -1,210 Descending New York Center
Mon 02:08:01 PM 40.9056 -75.2022 112° Southeast 309 356 10,400 -1,220 Descending New York Center
Mon 02:09:01 PM 40.8781 -75.1044 110° East 309 356 9,200 -1,240 Descending New York Center
Mon 02:10:02 PM 40.8503 -75.0011 110° East 309 356 7,900 -1,091 Descending New York Center
Mon 02:11:02 PM 40.8125 -74.8947 115° Southeast 293 337 7,000 -407 Descending New York Center
Mon 02:12:00 PM 40.7700 -74.7989 120° Southeast 298 343 7,100 -407 Climbing New York Center
Mon 02:13:00 PM 40.7272 -74.7114 123° Southeast 292 336 6,200 -942 Descending New York Center
Mon 02:14:01 PM 40.6842 -74.6242 123° Southeast 292 336 5,200 -595 Descending New York Center
Mon 02:15:01 PM 40.6411 -74.5369 123° Southeast 286 329 5,000 -99 Descending New York Center
Mon 02:16:02 PM 40.6042 -74.4583 122° Southeast 286 329 5,000 -347 Level New York Center
Mon 02:17:02 PM 40.5608 -74.3714 123° Southeast 266 306 4,300 -893 Descending New York Center
Mon 02:18:03 PM 40.5400 -74.3019 112° Southeast 252 290 3,200 -1,119 Descending New York Center
Mon 02:19:00 PM 40.5753 -74.2356 55° Northeast 180 207 2,100 -923 Descending New York Center
Mon 02:20:00 PM 40.6156 -74.2131 23° Northeast 169 194 1,400 -793 Descending New York Center
Mon 02:21:01 PM 40.6603 -74.1853 25° Northeast 163 188 500 -492 Descending New York Center
Mon 02:22:02 PM 40.6986 -74.1569 29° Northeast 154 177 400 -98 Descending New York Center

Login

Don't have an account? Register now (free) for customized features, flight alerts, and more!